createdAt,value
2023-04-30T00:00:27.489Z,95215.00
2023-04-30T00:01:27.169Z,95217.00
2023-04-30T00:02:27.309Z,95215.00
2023-04-30T00:03:27.375Z,95215.00
2023-04-30T00:04:27.574Z,95213.00
2023-04-30T00:05:27.385Z,95215.00
2023-04-30T00:06:28.373Z,95217.00
2023-04-30T00:07:27.466Z,95217.00
2023-04-30T00:08:27.514Z,95219.00
2023-04-30T00:09:27.543Z,95219.00
2023-04-30T00:10:27.533Z,95219.00
2023-04-30T00:11:27.553Z,95217.00
2023-04-30T00:12:27.639Z,95219.00
2023-04-30T00:13:27.680Z,95223.00
2023-04-30T00:14:27.629Z,95221.00
2023-04-30T00:15:27.656Z,95225.00
2023-04-30T00:16:27.744Z,95223.00
2023-04-30T00:17:27.804Z,95225.00
2023-04-30T00:18:27.841Z,95225.00
2023-04-30T00:19:27.734Z,95223.00
2023-04-30T00:20:27.822Z,95225.00
2023-04-30T00:21:27.809Z,95225.00
2023-04-30T00:22:27.832Z,95227.00
2023-04-30T00:23:27.859Z,95225.00
2023-04-30T00:24:27.831Z,95229.00
2023-04-30T00:25:27.852Z,95225.00
2023-04-30T00:26:27.868Z,95229.00
2023-04-30T00:27:27.933Z,95229.00
2023-04-30T00:28:27.973Z,95229.00
2023-04-30T00:29:28.021Z,95227.00
2023-04-30T00:30:28.019Z,95225.00
2023-04-30T00:31:28.040Z,95225.00
2023-04-30T00:32:28.127Z,95225.00
2023-04-30T00:33:28.118Z,95223.00
2023-04-30T00:34:28.135Z,95223.00
2023-04-30T00:35:28.210Z,95223.00
2023-04-30T00:36:28.198Z,95223.00
2023-04-30T00:37:28.225Z,95221.00
2023-04-30T00:38:28.235Z,95217.00
2023-04-30T00:39:28.289Z,95223.00
2023-04-30T00:40:28.318Z,95221.00
2023-04-30T00:41:28.418Z,95223.00
2023-04-30T00:42:28.383Z,95223.00
2023-04-30T00:43:28.415Z,95227.00
2023-04-30T00:44:28.456Z,95227.00
2023-04-30T00:45:28.457Z,95227.00
2023-04-30T00:46:28.921Z,95231.00
2023-04-30T00:47:28.527Z,95229.00
2023-04-30T00:48:28.476Z,95229.00
2023-04-30T00:49:28.505Z,95227.00
2023-04-30T00:50:28.505Z,95227.00
2023-04-30T00:51:28.891Z,95229.00
2023-04-30T00:52:28.639Z,95231.00
2023-04-30T00:53:28.736Z,95227.00
2023-04-30T00:54:28.641Z,95227.00
2023-04-30T00:55:28.760Z,95227.00
2023-04-30T00:56:28.812Z,95231.00
2023-04-30T00:57:28.893Z,95227.00
2023-04-30T00:58:28.903Z,95229.00
2023-04-30T00:59:28.872Z,95225.00
2023-04-30T01:00:28.964Z,95223.00
2023-04-30T01:01:29.137Z,95225.00
2023-04-30T01:02:29.090Z,95221.00
2023-04-30T01:03:29.225Z,95223.00
2023-04-30T01:04:29.155Z,95227.00
2023-04-30T01:05:29.229Z,95223.00
2023-04-30T01:06:29.269Z,95217.00
2023-04-30T01:07:29.244Z,95219.00
2023-04-30T01:08:29.342Z,95219.00
2023-04-30T01:09:29.316Z,95215.00
2023-04-30T01:10:29.306Z,95215.00
2023-04-30T01:11:29.385Z,95217.00
2023-04-30T01:12:29.385Z,95213.00
2023-04-30T01:13:29.389Z,95213.00
2023-04-30T01:14:29.366Z,95213.00
2023-04-30T01:15:29.393Z,95217.00
2023-04-30T01:16:29.475Z,95215.00
2023-04-30T01:17:29.509Z,95215.00
2023-04-30T01:18:29.679Z,95215.00
2023-04-30T01:19:29.499Z,95217.00
2023-04-30T01:20:29.539Z,95215.00
2023-04-30T01:21:29.576Z,95217.00
2023-04-30T01:22:29.621Z,95219.00
2023-04-30T01:23:29.682Z,95219.00
2023-04-30T01:24:29.679Z,95221.00
2023-04-30T01:25:29.725Z,95221.00
2023-04-30T01:26:29.758Z,95223.00
2023-04-30T01:27:29.820Z,95223.00
2023-04-30T01:28:29.885Z,95227.00
2023-04-30T01:29:29.883Z,95223.00
2023-04-30T01:30:29.904Z,95225.00
2023-04-30T01:31:29.986Z,95223.00
2023-04-30T01:32:30.061Z,95225.00
2023-04-30T01:33:30.071Z,95223.00
2023-04-30T01:34:30.165Z,95225.00
2023-04-30T01:35:30.188Z,95227.00
2023-04-30T01:36:30.181Z,95225.00
2023-04-30T01:37:30.248Z,95219.00
2023-04-30T01:38:30.378Z,95225.00
2023-04-30T01:39:30.319Z,95221.00
2023-04-30T01:40:30.492Z,95225.00
2023-04-30T01:41:30.438Z,95223.00
2023-04-30T01:42:31.605Z,95227.00
2023-04-30T01:43:30.492Z,95223.00
2023-04-30T01:44:30.506Z,95221.00
2023-04-30T01:45:30.596Z,95225.00
2023-04-30T01:46:30.718Z,95223.00
2023-04-30T01:47:30.711Z,95225.00
2023-04-30T01:48:30.725Z,95225.00
2023-04-30T01:49:30.741Z,95227.00
2023-04-30T01:50:30.802Z,95229.00
2023-04-30T01:51:30.905Z,95227.00
2023-04-30T01:52:30.919Z,95229.00
2023-04-30T01:53:30.968Z,95229.00
2023-04-30T01:54:30.979Z,95231.00
2023-04-30T01:55:31.043Z,95231.00
2023-04-30T01:56:31.093Z,95229.00
2023-04-30T01:57:31.119Z,95229.00
2023-04-30T01:58:31.098Z,95229.00
2023-04-30T01:59:31.173Z,95227.00
2023-04-30T02:00:31.205Z,95227.00
2023-04-30T02:01:31.328Z,95223.00
2023-04-30T02:02:31.431Z,95225.00
2023-04-30T02:03:31.519Z,95225.00
2023-04-30T02:04:31.429Z,95223.00
2023-04-30T02:05:31.502Z,95225.00
2023-04-30T02:06:31.643Z,95223.00
2023-04-30T02:07:31.619Z,95223.00
2023-04-30T02:08:31.695Z,95225.00
2023-04-30T02:09:31.717Z,95223.00
2023-04-30T02:10:31.750Z,95223.00
2023-04-30T02:11:31.894Z,95227.00
2023-04-30T02:12:31.936Z,95229.00
2023-04-30T02:13:32.028Z,95229.00
2023-04-30T02:14:31.960Z,95229.00
2023-04-30T02:15:31.987Z,95229.00
2023-04-30T02:16:32.146Z,95227.00
2023-04-30T02:17:32.158Z,95227.00
2023-04-30T02:18:32.232Z,95227.00
2023-04-30T02:19:32.211Z,95227.00
2023-04-30T02:20:32.640Z,95227.00
2023-04-30T02:21:32.357Z,95227.00
2023-04-30T02:22:32.372Z,95227.00
2023-04-30T02:23:32.428Z,95233.00
2023-04-30T02:24:32.471Z,95233.00
2023-04-30T02:25:32.564Z,95235.00
2023-04-30T02:26:32.566Z,95235.00
2023-04-30T02:27:32.622Z,95235.00
2023-04-30T02:28:32.692Z,95233.00
2023-04-30T02:29:32.737Z,95236.00
2023-04-30T02:30:32.753Z,95235.00
2023-04-30T02:31:32.906Z,95240.00
2023-04-30T02:32:32.912Z,95242.00
2023-04-30T02:33:32.921Z,95240.00
2023-04-30T02:34:32.950Z,95242.00
2023-04-30T02:35:33.016Z,95240.00
2023-04-30T02:36:33.082Z,95242.00
2023-04-30T02:37:33.115Z,95238.00
2023-04-30T02:38:33.141Z,95242.00
2023-04-30T02:39:33.150Z,95238.00
2023-04-30T02:40:33.230Z,95240.00
2023-04-30T02:41:33.248Z,95238.00
2023-04-30T02:42:33.240Z,95242.00
2023-04-30T02:43:33.329Z,95240.00
2023-04-30T02:44:33.383Z,95244.00
2023-04-30T02:45:33.484Z,95238.00
2023-04-30T02:46:34.241Z,95236.00
2023-04-30T02:47:33.497Z,95236.00
2023-04-30T02:48:33.535Z,95235.00
2023-04-30T02:49:33.542Z,95233.00
2023-04-30T02:50:33.645Z,95236.00
2023-04-30T02:51:33.656Z,95233.00
2023-04-30T02:52:33.660Z,95233.00
2023-04-30T02:53:34.062Z,95231.00
2023-04-30T02:54:33.786Z,95231.00
2023-04-30T02:55:34.196Z,95231.00
2023-04-30T02:56:33.857Z,95229.00
2023-04-30T02:57:34.187Z,95231.00
2023-04-30T02:58:33.913Z,95229.00
2023-04-30T02:59:33.916Z,95233.00
2023-04-30T03:00:34.001Z,95231.00
2023-04-30T03:01:34.038Z,95227.00
2023-04-30T03:02:34.173Z,95229.00
2023-04-30T03:03:34.242Z,95227.00
2023-04-30T03:04:34.163Z,95229.00
2023-04-30T03:05:34.245Z,95231.00
2023-04-30T03:06:34.387Z,95229.00
2023-04-30T03:07:34.399Z,95233.00
2023-04-30T03:08:34.428Z,95231.00
2023-04-30T03:09:34.467Z,95231.00
2023-04-30T03:10:34.477Z,95233.00
2023-04-30T03:11:35.094Z,95233.00
2023-04-30T03:12:34.549Z,95236.00
2023-04-30T03:13:34.648Z,95236.00
2023-04-30T03:14:34.670Z,95235.00
2023-04-30T03:15:34.688Z,95233.00
2023-04-30T03:16:35.052Z,95235.00
2023-04-30T03:17:34.808Z,95231.00
2023-04-30T03:18:34.840Z,95231.00
2023-04-30T03:19:34.815Z,95231.00
2023-04-30T03:20:34.908Z,95233.00
2023-04-30T03:21:34.920Z,95231.00
2023-04-30T03:22:34.918Z,95231.00
2023-04-30T03:23:34.978Z,95231.00
2023-04-30T03:24:35.048Z,95229.00
2023-04-30T03:25:35.051Z,95229.00
2023-04-30T03:26:35.151Z,95227.00
2023-04-30T03:27:35.156Z,95225.00
2023-04-30T03:28:35.218Z,95231.00
2023-04-30T03:29:35.248Z,95229.00
2023-04-30T03:30:35.311Z,95229.00
2023-04-30T03:31:35.362Z,95231.00
2023-04-30T03:32:35.425Z,95235.00
2023-04-30T03:33:35.494Z,95235.00
2023-04-30T03:34:35.468Z,95233.00
2023-04-30T03:35:35.549Z,95231.00
2023-04-30T03:36:35.542Z,95227.00
2023-04-30T03:37:35.625Z,95227.00
2023-04-30T03:38:35.766Z,95227.00
2023-04-30T03:39:35.696Z,95227.00
2023-04-30T03:40:35.802Z,95225.00
2023-04-30T03:41:35.841Z,95225.00
2023-04-30T03:42:35.892Z,95225.00
2023-04-30T03:43:35.989Z,95221.00
2023-04-30T03:44:36.021Z,95219.00
2023-04-30T03:45:36.009Z,95217.00
2023-04-30T03:46:36.199Z,95219.00
2023-04-30T03:47:36.157Z,95221.00
2023-04-30T03:48:36.217Z,95221.00
2023-04-30T03:49:36.313Z,95225.00
2023-04-30T03:50:36.317Z,95225.00
2023-04-30T03:51:36.360Z,95225.00
2023-04-30T03:52:36.397Z,95229.00
2023-04-30T03:53:36.372Z,95229.00
2023-04-30T03:54:36.432Z,95233.00
2023-04-30T03:55:36.517Z,95233.00
2023-04-30T03:56:36.525Z,95235.00
2023-04-30T03:57:36.596Z,95236.00
2023-04-30T03:58:36.663Z,95238.00
2023-04-30T03:59:36.730Z,95238.00
2023-04-30T04:00:36.725Z,95238.00
2023-04-30T04:01:36.862Z,95235.00
2023-04-30T04:02:36.871Z,95236.00
2023-04-30T04:03:36.871Z,95235.00
2023-04-30T04:04:36.979Z,95236.00
2023-04-30T04:05:36.991Z,95235.00
2023-04-30T04:06:37.163Z,95236.00
2023-04-30T04:07:37.082Z,95233.00
2023-04-30T04:08:37.153Z,95233.00
2023-04-30T04:09:37.140Z,95238.00
2023-04-30T04:10:37.232Z,95233.00
2023-04-30T04:11:37.257Z,95233.00
2023-04-30T04:12:37.380Z,95233.00
2023-04-30T04:13:37.427Z,95229.00
2023-04-30T04:14:37.451Z,95235.00
2023-04-30T04:15:37.487Z,95231.00
2023-04-30T04:16:37.569Z,95235.00
2023-04-30T04:17:37.629Z,95233.00
2023-04-30T04:18:37.659Z,95229.00
2023-04-30T04:19:37.692Z,95231.00
2023-04-30T04:20:37.695Z,95233.00
2023-04-30T04:21:37.707Z,95229.00
2023-04-30T04:22:37.764Z,95233.00
2023-04-30T04:23:37.820Z,95231.00
2023-04-30T04:24:37.853Z,95231.00
2023-04-30T04:25:37.835Z,95233.00
2023-04-30T04:26:37.846Z,95235.00
2023-04-30T04:27:37.838Z,95233.00
2023-04-30T04:28:37.909Z,95233.00
2023-04-30T04:29:37.921Z,95231.00
2023-04-30T04:30:37.877Z,95231.00
2023-04-30T04:31:37.964Z,95229.00
2023-04-30T04:32:37.940Z,95233.00
2023-04-30T04:33:37.910Z,95231.00
2023-04-30T04:34:37.997Z,95229.00
2023-04-30T04:35:37.944Z,95235.00
2023-04-30T04:36:37.957Z,95231.00
2023-04-30T04:37:37.948Z,95235.00
2023-04-30T04:38:38.002Z,95235.00
2023-04-30T04:39:38.052Z,95235.00
2023-04-30T04:40:38.141Z,95233.00
2023-04-30T04:41:38.125Z,95233.00
2023-04-30T04:42:38.288Z,95235.00
2023-04-30T04:43:38.771Z,95233.00
2023-04-30T04:44:38.205Z,95236.00
2023-04-30T04:45:38.269Z,95235.00
2023-04-30T04:46:38.418Z,95231.00
2023-04-30T04:47:38.442Z,95233.00
2023-04-30T04:48:38.447Z,95231.00
2023-04-30T04:49:38.446Z,95236.00
2023-04-30T04:50:38.448Z,95236.00
2023-04-30T04:51:38.556Z,95235.00
2023-04-30T04:52:38.552Z,95238.00
2023-04-30T04:53:38.695Z,95238.00
2023-04-30T04:54:38.728Z,95236.00
2023-04-30T04:55:38.739Z,95235.00
2023-04-30T04:56:38.835Z,95235.00
2023-04-30T04:57:38.875Z,95235.00
2023-04-30T04:58:38.915Z,95236.00
2023-04-30T04:59:38.982Z,95235.00
2023-04-30T05:00:39.026Z,95235.00
2023-04-30T05:01:39.078Z,95235.00
2023-04-30T05:02:39.258Z,95235.00
2023-04-30T05:03:39.266Z,95236.00
2023-04-30T05:04:39.564Z,95233.00
2023-04-30T05:05:39.258Z,95233.00
2023-04-30T05:06:39.385Z,95233.00
2023-04-30T05:07:39.402Z,95231.00
2023-04-30T05:08:39.479Z,95235.00
2023-04-30T05:09:39.503Z,95235.00
2023-04-30T05:10:39.587Z,95235.00
2023-04-30T05:11:39.604Z,95238.00
2023-04-30T05:12:39.643Z,95238.00
2023-04-30T05:13:39.787Z,95238.00
2023-04-30T05:14:39.769Z,95240.00
2023-04-30T05:15:39.828Z,95236.00
2023-04-30T05:16:40.025Z,95240.00
2023-04-30T05:17:39.968Z,95242.00
2023-04-30T05:18:39.990Z,95240.00
2023-04-30T05:19:40.012Z,95236.00
2023-04-30T05:20:40.065Z,95235.00
2023-04-30T05:21:40.106Z,95236.00
2023-04-30T05:22:40.261Z,95231.00
2023-04-30T05:23:40.218Z,95235.00
2023-04-30T05:24:40.194Z,95233.00
2023-04-30T05:25:40.259Z,95236.00
2023-04-30T05:26:40.301Z,95236.00
2023-04-30T05:27:40.374Z,95238.00
2023-04-30T05:28:40.449Z,95236.00
2023-04-30T05:29:40.463Z,95236.00
2023-04-30T05:30:40.494Z,95236.00
2023-04-30T05:31:40.546Z,95236.00
2023-04-30T05:32:40.610Z,95235.00
2023-04-30T05:33:40.517Z,95240.00
2023-04-30T05:34:40.580Z,95236.00
2023-04-30T05:35:40.552Z,95240.00
2023-04-30T05:36:41.946Z,95236.00
2023-04-30T05:37:40.704Z,95236.00
2023-04-30T05:38:40.793Z,95236.00
2023-04-30T05:39:40.821Z,95240.00
2023-04-30T05:40:40.812Z,95242.00
2023-04-30T05:41:40.833Z,95240.00
2023-04-30T05:42:40.973Z,95242.00
2023-04-30T05:43:41.115Z,95238.00
2023-04-30T05:44:41.011Z,95240.00
2023-04-30T05:45:41.079Z,95240.00
2023-04-30T05:46:41.117Z,95236.00
2023-04-30T05:47:41.211Z,95238.00
2023-04-30T05:48:41.281Z,95238.00
2023-04-30T05:49:41.250Z,95238.00
2023-04-30T05:50:41.288Z,95238.00
2023-04-30T05:51:41.359Z,95236.00
2023-04-30T05:52:41.404Z,95238.00
2023-04-30T05:53:41.487Z,95238.00
2023-04-30T05:54:41.535Z,95238.00
2023-04-30T05:55:41.588Z,95246.00
2023-04-30T05:56:41.644Z,95242.00
2023-04-30T05:57:41.647Z,95240.00
2023-04-30T05:58:41.747Z,95242.00
2023-04-30T05:59:41.791Z,95242.00
2023-04-30T06:00:41.874Z,95240.00
2023-04-30T06:01:41.881Z,95246.00
2023-04-30T06:02:41.926Z,95244.00
2023-04-30T06:03:41.899Z,95240.00
2023-04-30T06:04:41.996Z,95242.00
2023-04-30T06:05:42.126Z,95238.00
2023-04-30T06:06:42.005Z,95244.00
2023-04-30T06:07:41.951Z,95240.00
2023-04-30T06:08:42.006Z,95242.00
2023-04-30T06:09:42.348Z,95242.00
2023-04-30T06:10:42.050Z,95244.00
2023-04-30T06:11:42.716Z,95244.00
2023-04-30T06:12:42.014Z,95242.00
2023-04-30T06:13:42.068Z,95244.00
2023-04-30T06:14:42.862Z,95246.00
2023-04-30T06:15:42.189Z,95244.00
2023-04-30T06:16:42.236Z,95246.00
2023-04-30T06:17:42.251Z,95242.00
2023-04-30T06:18:42.712Z,95242.00
2023-04-30T06:19:42.255Z,95238.00
2023-04-30T06:20:42.257Z,95242.00
2023-04-30T06:21:42.279Z,95235.00
2023-04-30T06:22:42.362Z,95240.00
2023-04-30T06:23:42.400Z,95236.00
2023-04-30T06:24:42.409Z,95238.00
2023-04-30T06:25:42.482Z,95242.00
2023-04-30T06:26:42.516Z,95244.00
2023-04-30T06:27:42.540Z,95240.00
2023-04-30T06:28:42.620Z,95240.00
2023-04-30T06:29:42.657Z,95240.00
2023-04-30T06:30:42.634Z,95236.00
2023-04-30T06:31:42.711Z,95246.00
2023-04-30T06:32:42.696Z,95240.00
2023-04-30T06:33:42.776Z,95240.00
2023-04-30T06:34:42.697Z,95246.00
2023-04-30T06:35:42.682Z,95246.00
2023-04-30T06:36:42.723Z,95244.00
2023-04-30T06:37:42.746Z,95250.00
2023-04-30T06:38:42.806Z,95248.00
2023-04-30T06:39:42.844Z,95248.00
2023-04-30T06:40:42.888Z,95246.00
2023-04-30T06:41:42.946Z,95246.00
2023-04-30T06:42:43.148Z,95248.00
2023-04-30T06:43:42.972Z,95246.00
2023-04-30T06:44:43.093Z,95244.00
2023-04-30T06:45:43.057Z,95246.00
2023-04-30T06:46:43.162Z,95248.00
2023-04-30T06:47:43.377Z,95242.00
2023-04-30T06:48:43.226Z,95246.00
2023-04-30T06:49:43.265Z,95242.00
2023-04-30T06:50:43.398Z,95240.00
2023-04-30T06:51:43.371Z,95242.00
2023-04-30T06:52:43.435Z,95246.00
2023-04-30T06:53:43.455Z,95240.00
2023-04-30T06:54:43.514Z,95244.00
2023-04-30T06:55:43.451Z,95248.00
2023-04-30T06:56:43.491Z,95248.00
2023-04-30T06:57:43.872Z,95248.00
2023-04-30T06:58:43.569Z,95250.00
2023-04-30T06:59:43.615Z,95246.00
2023-04-30T07:00:43.653Z,95244.00
2023-04-30T07:01:43.681Z,95246.00
2023-04-30T07:02:43.733Z,95244.00
2023-04-30T07:03:43.844Z,95244.00
2023-04-30T07:04:43.698Z,95242.00
2023-04-30T07:05:44.528Z,95242.00
2023-04-30T07:06:43.851Z,95246.00
2023-04-30T07:07:43.757Z,95244.00
2023-04-30T07:08:43.774Z,95240.00
2023-04-30T07:09:43.800Z,95244.00
2023-04-30T07:10:43.792Z,95242.00
2023-04-30T07:11:43.845Z,95236.00
2023-04-30T07:12:43.944Z,95238.00
2023-04-30T07:13:43.958Z,95238.00
2023-04-30T07:14:43.953Z,95236.00
2023-04-30T07:15:43.966Z,95235.00
2023-04-30T07:16:44.062Z,95236.00
2023-04-30T07:17:44.171Z,95233.00
2023-04-30T07:18:44.174Z,95236.00
2023-04-30T07:19:44.269Z,95238.00
2023-04-30T07:20:44.249Z,95240.00
2023-04-30T07:21:44.309Z,95242.00
2023-04-30T07:22:44.328Z,95238.00
2023-04-30T07:23:44.341Z,95240.00
2023-04-30T07:24:44.369Z,95238.00
2023-04-30T07:25:44.387Z,95240.00
2023-04-30T07:26:44.401Z,95244.00
2023-04-30T07:27:44.401Z,95242.00
2023-04-30T07:28:44.475Z,95240.00
2023-04-30T07:29:44.610Z,95240.00
2023-04-30T07:30:44.592Z,95240.00
2023-04-30T07:31:44.775Z,95238.00
2023-04-30T07:32:44.682Z,95240.00
2023-04-30T07:33:44.709Z,95238.00
2023-04-30T07:34:44.752Z,95238.00
2023-04-30T07:35:44.765Z,95235.00
2023-04-30T07:36:44.832Z,95236.00
2023-04-30T07:37:44.908Z,95233.00
2023-04-30T07:38:44.969Z,95233.00
2023-04-30T07:39:45.030Z,95231.00
2023-04-30T07:40:45.055Z,95231.00
2023-04-30T07:41:45.110Z,95231.00
2023-04-30T07:42:45.104Z,95229.00
2023-04-30T07:43:45.139Z,95231.00
2023-04-30T07:44:45.142Z,95233.00
2023-04-30T07:45:45.115Z,95231.00
2023-04-30T07:46:45.144Z,95229.00
2023-04-30T07:47:45.164Z,95233.00
2023-04-30T07:48:45.155Z,95231.00
2023-04-30T07:49:45.229Z,95227.00
2023-04-30T07:50:45.224Z,95229.00
2023-04-30T07:51:45.306Z,95233.00
2023-04-30T07:52:45.319Z,95231.00
2023-04-30T07:53:45.488Z,95231.00
2023-04-30T07:54:45.411Z,95231.00
2023-04-30T07:55:45.476Z,95231.00
2023-04-30T07:56:45.452Z,95231.00
2023-04-30T07:57:45.548Z,95229.00
2023-04-30T07:58:45.529Z,95231.00
2023-04-30T07:59:45.609Z,95231.00
2023-04-30T08:00:45.604Z,95225.00
2023-04-30T08:01:45.617Z,95229.00
2023-04-30T08:02:45.733Z,95229.00
2023-04-30T08:03:45.759Z,95229.00
2023-04-30T08:04:45.730Z,95229.00
2023-04-30T08:05:45.748Z,95229.00
2023-04-30T08:06:45.999Z,95225.00
2023-04-30T08:07:45.866Z,95231.00
2023-04-30T08:08:45.851Z,95231.00
2023-04-30T08:09:45.989Z,95225.00
2023-04-30T08:10:45.978Z,95227.00
2023-04-30T08:11:46.043Z,95227.00
2023-04-30T08:12:47.303Z,95229.00
2023-04-30T08:13:46.091Z,95227.00
2023-04-30T08:14:46.204Z,95227.00
2023-04-30T08:15:46.113Z,95225.00
2023-04-30T08:16:46.159Z,95225.00
2023-04-30T08:17:46.153Z,95221.00
2023-04-30T08:18:46.087Z,95221.00
2023-04-30T08:19:46.150Z,95221.00
2023-04-30T08:20:46.153Z,95221.00
2023-04-30T08:21:46.242Z,95221.00
2023-04-30T08:22:46.203Z,95217.00
2023-04-30T08:23:46.236Z,95215.00
2023-04-30T08:24:46.816Z,95219.00
2023-04-30T08:25:46.334Z,95217.00
2023-04-30T08:26:46.340Z,95215.00
2023-04-30T08:27:46.396Z,95211.00
2023-04-30T08:28:46.391Z,95209.00
2023-04-30T08:29:46.488Z,95211.00
2023-04-30T08:30:46.550Z,95205.00
2023-04-30T08:31:46.585Z,95205.00
2023-04-30T08:32:46.690Z,95205.00
2023-04-30T08:33:46.701Z,95203.00
2023-04-30T08:34:46.734Z,95205.00
2023-04-30T08:35:46.736Z,95201.00
2023-04-30T08:36:46.780Z,95201.00
2023-04-30T08:37:46.789Z,95205.00
2023-04-30T08:38:46.845Z,95205.00
2023-04-30T08:39:46.882Z,95203.00
2023-04-30T08:40:51.511Z,95205.00
2023-04-30T08:41:47.928Z,95203.00
2023-04-30T08:42:46.899Z,95201.00
2023-04-30T08:43:46.902Z,95203.00
2023-04-30T08:44:46.904Z,95207.00
2023-04-30T08:45:46.921Z,95203.00
2023-04-30T08:46:46.896Z,95203.00
2023-04-30T08:47:46.908Z,95205.00
2023-04-30T08:48:46.868Z,95205.00
2023-04-30T08:49:46.850Z,95205.00
2023-04-30T08:50:46.845Z,95205.00
2023-04-30T08:51:46.876Z,95203.00
2023-04-30T08:52:46.940Z,95201.00
2023-04-30T08:53:46.955Z,95203.00
2023-04-30T08:54:46.966Z,95199.00
2023-04-30T08:55:46.994Z,95199.00
2023-04-30T08:56:47.023Z,95199.00
2023-04-30T08:57:47.364Z,95199.00
2023-04-30T08:58:47.088Z,95195.00
2023-04-30T08:59:47.081Z,95195.00
2023-04-30T09:00:47.108Z,95197.00
2023-04-30T09:01:47.180Z,95197.00
2023-04-30T09:02:47.216Z,95195.00
2023-04-30T09:03:47.324Z,95199.00
2023-04-30T09:04:47.233Z,95201.00
2023-04-30T09:05:47.254Z,95199.00
2023-04-30T09:06:47.468Z,95201.00
2023-04-30T09:08:47.370Z,95195.00
2023-04-30T09:09:47.343Z,95205.00
2023-04-30T09:10:47.319Z,95203.00
2023-04-30T09:11:47.270Z,95203.00
2023-04-30T09:12:47.295Z,95199.00
2023-04-30T09:13:47.286Z,95199.00
2023-04-30T09:14:47.331Z,95199.00
2023-04-30T09:15:47.290Z,95197.00
2023-04-30T09:16:47.275Z,95193.00
2023-04-30T09:17:48.545Z,95195.00
2023-04-30T09:18:47.273Z,95195.00
2023-04-30T09:19:47.295Z,95189.00
2023-04-30T09:20:47.291Z,95191.00
2023-04-30T09:21:47.207Z,95191.00
2023-04-30T09:22:47.235Z,95189.00
2023-04-30T09:23:47.233Z,95187.00
2023-04-30T09:24:47.176Z,95189.00
2023-04-30T09:25:47.190Z,95183.00
2023-04-30T09:26:47.264Z,95181.00
2023-04-30T09:27:47.177Z,95183.00
2023-04-30T09:28:47.192Z,95183.00
2023-04-30T09:29:47.201Z,95180.00
2023-04-30T09:30:47.171Z,95178.00
2023-04-30T09:31:47.281Z,95174.00
2023-04-30T09:32:47.270Z,95174.00
2023-04-30T09:33:47.260Z,95176.00
2023-04-30T09:34:47.151Z,95172.00
2023-04-30T09:35:47.156Z,95176.00
2023-04-30T09:36:47.136Z,95174.00
2023-04-30T09:37:47.139Z,95170.00
2023-04-30T09:38:47.131Z,95170.00
2023-04-30T09:39:47.151Z,95170.00
2023-04-30T09:40:47.216Z,95168.00
2023-04-30T09:41:47.253Z,95164.00
2023-04-30T09:42:47.251Z,95162.00
2023-04-30T09:43:47.295Z,95164.00
2023-04-30T09:44:47.319Z,95162.00
2023-04-30T09:45:47.344Z,95162.00
2023-04-30T09:46:47.448Z,95158.00
2023-04-30T09:47:47.791Z,95158.00
2023-04-30T09:48:47.448Z,95156.00
2023-04-30T09:49:47.485Z,95154.00
2023-04-30T09:50:47.872Z,95150.00
2023-04-30T09:51:47.544Z,95150.00
2023-04-30T09:52:47.634Z,95150.00
2023-04-30T09:53:47.597Z,95152.00
2023-04-30T09:54:47.673Z,95150.00
2023-04-30T09:55:47.702Z,95150.00
2023-04-30T09:56:47.709Z,95144.00
2023-04-30T09:57:47.699Z,95144.00
2023-04-30T09:58:47.724Z,95144.00
2023-04-30T09:59:47.809Z,95144.00
2023-04-30T10:00:47.845Z,95134.00
2023-04-30T10:01:47.907Z,95128.00
2023-04-30T10:02:48.272Z,95128.00
2023-04-30T10:03:47.976Z,95128.00
2023-04-30T10:04:48.327Z,95125.00
2023-04-30T10:05:47.999Z,95123.00
2023-04-30T10:06:48.060Z,95125.00
2023-04-30T10:07:48.066Z,95125.00
2023-04-30T10:08:48.141Z,95125.00
2023-04-30T10:09:48.124Z,95123.00
2023-04-30T10:10:49.403Z,95123.00
2023-04-30T10:11:48.184Z,95119.00
2023-04-30T10:12:48.200Z,95111.00
2023-04-30T10:13:48.215Z,95115.00
2023-04-30T10:14:48.356Z,95111.00
2023-04-30T10:15:48.340Z,95107.00
2023-04-30T10:16:48.468Z,95109.00
2023-04-30T10:17:48.406Z,95105.00
2023-04-30T10:18:48.486Z,95107.00
2023-04-30T10:19:48.445Z,95105.00
2023-04-30T10:20:48.496Z,95103.00
2023-04-30T10:21:48.609Z,95103.00
2023-04-30T10:22:48.575Z,95097.00
2023-04-30T10:23:48.621Z,95101.00
2023-04-30T10:24:49.012Z,95097.00
2023-04-30T10:25:48.620Z,95093.00
2023-04-30T10:26:48.704Z,95093.00
2023-04-30T10:27:48.705Z,95089.00
2023-04-30T10:28:48.756Z,95085.00
2023-04-30T10:29:48.753Z,95083.00
2023-04-30T10:30:48.821Z,95081.00
2023-04-30T10:31:48.963Z,95080.00
2023-04-30T10:32:48.905Z,95080.00
2023-04-30T10:33:49.223Z,95080.00
2023-04-30T10:34:48.944Z,95076.00
2023-04-30T10:35:48.972Z,95078.00
2023-04-30T10:36:49.013Z,95074.00
2023-04-30T10:37:49.076Z,95078.00
2023-04-30T10:38:49.134Z,95078.00
2023-04-30T10:39:49.096Z,95076.00
2023-04-30T10:40:49.243Z,95074.00
2023-04-30T10:41:49.239Z,95070.00
2023-04-30T10:42:49.367Z,95072.00
2023-04-30T10:43:49.686Z,95068.00
2023-04-30T10:44:49.534Z,95068.00
2023-04-30T10:45:49.739Z,95068.00
2023-04-30T10:46:49.568Z,95064.00
2023-04-30T10:47:50.003Z,95060.00
2023-04-30T10:48:50.026Z,95058.00
2023-04-30T10:49:49.851Z,95064.00
2023-04-30T10:50:50.084Z,95064.00
2023-04-30T10:51:49.853Z,95066.00
2023-04-30T10:52:49.873Z,95068.00
2023-04-30T10:53:49.919Z,95060.00
2023-04-30T10:54:49.961Z,95058.00
2023-04-30T10:55:50.295Z,95056.00
2023-04-30T10:56:49.977Z,95056.00
2023-04-30T10:57:49.982Z,95046.00
2023-04-30T10:58:50.050Z,95044.00
2023-04-30T10:59:50.068Z,95042.00
2023-04-30T11:00:50.065Z,95042.00
2023-04-30T11:01:50.219Z,95038.00
2023-04-30T11:02:50.263Z,95038.00
2023-04-30T11:03:50.217Z,95036.00
2023-04-30T11:04:50.270Z,95032.00
2023-04-30T11:05:50.239Z,95030.00
2023-04-30T11:06:50.326Z,95028.00
2023-04-30T11:07:50.497Z,95026.00
2023-04-30T11:08:50.433Z,95032.00
2023-04-30T11:09:50.441Z,95028.00
2023-04-30T11:10:50.473Z,95023.00
2023-04-30T11:11:50.517Z,95026.00
2023-04-30T11:12:50.557Z,95032.00
2023-04-30T11:13:50.583Z,95028.00
2023-04-30T11:14:50.570Z,95026.00
2023-04-30T11:15:50.634Z,95025.00
2023-04-30T11:16:50.629Z,95021.00
2023-04-30T11:17:50.695Z,95017.00
2023-04-30T11:18:50.998Z,95015.00
2023-04-30T11:19:50.793Z,95015.00
2023-04-30T11:20:50.741Z,95015.00
2023-04-30T11:21:50.758Z,95013.00
2023-04-30T11:22:50.850Z,95015.00
2023-04-30T11:23:50.858Z,95015.00
2023-04-30T11:24:50.890Z,95015.00
2023-04-30T11:25:50.845Z,95007.00
2023-04-30T11:26:50.912Z,95003.00
2023-04-30T11:27:50.896Z,95003.00
2023-04-30T11:28:50.929Z,94999.00
2023-04-30T11:29:50.934Z,94999.00
2023-04-30T11:30:50.929Z,95001.00
2023-04-30T11:31:51.047Z,94999.00
2023-04-30T11:32:51.982Z,94997.00
2023-04-30T11:33:51.048Z,94991.00
2023-04-30T11:34:51.124Z,94993.00
2023-04-30T11:35:51.193Z,94997.00
2023-04-30T11:36:51.194Z,94993.00
2023-04-30T11:37:51.238Z,94995.00
2023-04-30T11:38:51.944Z,94991.00
2023-04-30T11:39:51.291Z,94991.00
2023-04-30T11:40:51.419Z,94989.00
2023-04-30T11:41:52.417Z,94993.00
2023-04-30T11:42:51.268Z,94995.00
2023-04-30T11:43:51.350Z,94993.00
2023-04-30T11:44:51.373Z,94987.00
2023-04-30T11:45:51.390Z,94985.00